Time;durP1;ratioP1;P1;durP2;ratioP2;P2;SDS_P1;SDS_P2;PMS_P1;PMS_P2;Temp;Humidity;BMP_temperature;BMP_pressure;BME280_temperature;BME280_humidity;BME280_pressure;Samples;Min_cycle;Max_cycle;Signal;HPM_P1;HPM_P2
2023/09/06 00:00:29;;;;;;;6.55;3.95;;;;;;;;;;4948326;29;20536;-84
2023/09/06 00:02:55;;;;;;;;;;;;;;;;;;4950079;29;20038;-83
2023/09/06 00:05:20;;;;;;;8.73;3.65;;;;;;;;;;4950939;29;20353;-84
2023/09/06 00:07:46;;;;;;;8.82;3.60;;;;;;;;;;4968300;29;20038;-84
2023/09/06 00:10:15;;;;;;;7.65;3.70;;;;;;;;;;4951245;29;20027;-84
2023/09/06 00:12:43;;;;;;;7.85;3.80;;;;;;;;;;4951544;29;20395;-84
2023/09/06 00:15:12;;;;;;;8.10;3.80;;;;;;;;;;4968590;28;20127;-84
2023/09/06 00:17:38;;;;;;;5.43;3.30;;;;;;;;;;4950836;29;20038;-84
2023/09/06 00:20:20;;;;;;;6.80;3.50;;;;;;;;;;4951499;29;20511;-83
2023/09/06 00:22:53;;;;;;;9.05;3.55;;;;;;;;;;4968098;29;20031;-84
2023/09/06 00:25:21;;;;;;;6.78;3.65;;;;;;;;;;4968592;28;20056;-85
2023/09/06 00:27:50;;;;;;;5.35;3.72;;;;;;;;;;4968786;29;20035;-83
2023/09/06 00:30:18;;;;;;;6.28;3.83;;;;;;;;;;4959635;29;20031;-84
2023/09/06 00:32:45;;;;;;;8.43;3.55;;;;;;;;;;4937556;29;20035;-84
2023/09/06 00:35:11;;;;;;;10.82;3.65;;;;;;;;;;4951386;28;20038;-84
2023/09/06 00:37:40;;;;;;;7.65;3.33;;;;;;;;;;4951874;29;20031;-85
2023/09/06 00:40:14;;;;;;;6.88;4.00;;;;;;;;;;4952089;29;20035;-83
2023/09/06 00:42:40;;;;;;;7.40;3.80;;;;;;;;;;4969166;28;20039;-84
2023/09/06 00:45:07;;;;;;;8.45;3.53;;;;;;;;;;4966900;28;20039;-83
2023/09/06 00:47:32;;;;;;;7.40;3.53;;;;;;;;;;4951093;29;20410;-84
2023/09/06 00:49:58;;;;;;;8.35;3.88;;;;;;;;;;4950216;29;20483;-85
2023/09/06 00:52:24;;;;;;;8.82;3.65;;;;;;;;;;4952797;29;20059;-83
2023/09/06 00:54:52;;;;;;;9.57;3.70;;;;;;;;;;4953754;29;20582;-84
2023/09/06 00:57:18;;;;;;;6.97;3.65;;;;;;;;;;4970089;29;20039;-84
2023/09/06 00:59:43;;;;;;;5.78;3.45;;;;;;;;;;4954525;28;20067;-84
2023/09/06 01:02:09;;;;;;;9.07;3.55;;;;;;;;;;4969402;28;20419;-84
2023/09/06 01:04:37;;;;;;;9.18;4.00;;;;;;;;;;4954209;29;20058;-84
2023/09/06 01:07:06;;;;;;;12.80;4.43;;;;;;;;;;4970371;29;20074;-84
2023/09/06 01:09:32;;;;;;;5.82;3.47;;;;;;;;;;4953752;29;20513;-84
2023/09/06 01:11:59;;;;;;;6.22;3.78;;;;;;;;;;4957209;29;20031;-84
2023/09/06 01:14:24;;;;;;;6.68;3.92;;;;;;;;;;4940579;29;20035;-85
2023/09/06 01:16:54;;;;;;;7.10;3.45;;;;;;;;;;4956935;28;20042;-84
2023/09/06 01:19:24;;;;;;;6.25;3.90;;;;;;;;;;4961373;29;20038;-84
2023/09/06 01:22:10;;;;;;;7.75;4.32;;;;;;;;;;4977361;29;20287;-84
2023/09/06 01:24:36;;;;;;;6.15;3.40;;;;;;;;;;4938898;29;20063;-84
2023/09/06 01:27:04;;;;;;;7.50;3.90;;;;;;;;;;4962243;28;20019;-85
2023/09/06 01:29:31;;;;;;;8.73;4.05;;;;;;;;;;4972770;28;20070;-85
2023/09/06 01:31:56;;;;;;;6.10;3.28;;;;;;;;;;4954097;29;20044;-85
2023/09/06 01:34:22;;;;;;;7.78;4.10;;;;;;;;;;4922640;29;20032;-85
2023/09/06 01:36:48;;;;;;;6.15;3.78;;;;;;;;;;4939028;29;20035;-85
2023/09/06 01:39:13;;;;;;;8.00;3.97;;;;;;;;;;4938516;29;20102;-85
2023/09/06 01:41:40;;;;;;;6.43;3.90;;;;;;;;;;4938477;29;20056;-85
2023/09/06 01:44:06;;;;;;;11.35;4.10;;;;;;;;;;4936682;29;20535;-84
2023/09/06 01:46:31;;;;;;;8.10;4.07;;;;;;;;;;4936312;29;20044;-85
2023/09/06 01:48:59;;;;;;;6.78;3.95;;;;;;;;;;4955358;28;20125;-84
2023/09/06 01:51:25;;;;;;;6.37;3.80;;;;;;;;;;4956767;29;20039;-84
2023/09/06 01:53:51;;;;;;;7.35;4.00;;;;;;;;;;4955166;29;20027;-84
2023/09/06 01:56:17;;;;;;;6.82;4.30;;;;;;;;;;4955595;29;20074;-84
2023/09/06 01:58:43;;;;;;;9.77;3.88;;;;;;;;;;4973069;29;20027;-84
2023/09/06 02:01:09;;;;;;;8.95;4.00;;;;;;;;;;4972313;29;20034;-84
2023/09/06 02:03:35;;;;;;;6.28;3.78;;;;;;;;;;4942529;29;20107;-85
2023/09/06 02:06:03;;;;;;;6.38;3.78;;;;;;;;;;4972932;29;20039;-84
2023/09/06 02:08:30;;;;;;;8.55;3.63;;;;;;;;;;4942964;29;20035;-85
2023/09/06 02:11:00;;;;;;;7.47;4.28;;;;;;;;;;4955406;28;20059;-85
2023/09/06 02:13:26;;;;;;;;;;;;;;;;;;4945425;29;20024;-85
2023/09/06 02:15:51;;;;;;;7.75;4.07;;;;;;;;;;4963025;29;19911;-85
2023/09/06 02:18:17;;;;;;;9.45;4.43;;;;;;;;;;4962720;29;20058;-84
2023/09/06 02:20:44;;;;;;;6.93;4.20;;;;;;;;;;4948032;29;20046;-85
2023/09/06 02:23:11;;;;;;;6.93;3.85;;;;;;;;;;4945308;29;20031;-85
2023/09/06 02:25:38;;;;;;;6.57;4.03;;;;;;;;;;4978601;29;20117;-85
2023/09/06 02:28:04;;;;;;;9.48;4.35;;;;;;;;;;4964380;29;20035;-85
2023/09/06 02:30:30;;;;;;;8.95;4.60;;;;;;;;;;4946530;29;20035;-85
2023/09/06 02:32:56;;;;;;;9.48;4.07;;;;;;;;;;4962341;29;20031;-85
2023/09/06 02:35:22;;;;;;;9.38;4.15;;;;;;;;;;4947057;29;20392;-85
2023/09/06 02:37:47;;;;;;;8.73;4.07;;;;;;;;;;4963766;29;20050;-85
2023/09/06 02:40:14;;;;;;;6.50;4.07;;;;;;;;;;4963546;29;20050;-85
2023/09/06 02:42:40;;;;;;;9.32;4.60;;;;;;;;;;4959901;29;20043;-86
2023/09/06 02:45:09;;;;;;;7.82;3.85;;;;;;;;;;4943805;29;20039;-85
2023/09/06 02:47:39;;;;;;;12.25;4.00;;;;;;;;;;4944695;29;20091;-84
2023/09/06 02:50:07;;;;;;;7.10;4.10;;;;;;;;;;4959096;29;20096;-85
2023/09/06 02:52:35;;;;;;;7.28;4.22;;;;;;;;;;4926464;29;20095;-85
2023/09/06 02:55:05;;;;;;;8.35;4.82;;;;;;;;;;4942234;29;20047;-87
2023/09/06 02:57:32;;;;;;;8.25;4.68;;;;;;;;;;4948167;29;20047;-84
2023/09/06 02:59:59;;;;;;;8.00;4.47;;;;;;;;;;4965046;29;20042;-84
2023/09/06 03:02:25;;;;;;;14.32;5.57;;;;;;;;;;4963629;29;20039;-85
2023/09/06 03:05:03;;;;;;;11.38;5.22;;;;;;;;;;4964041;29;20035;-84
2023/09/06 03:07:33;;;;;;;7.65;4.20;;;;;;;;;;4978160;28;20028;-85
2023/09/06 03:09:58;;;;;;;13.18;8.70;;;;;;;;;;4961911;29;20046;-84
2023/09/06 03:12:29;;;;;;;24.40;13.30;;;;;;;;;;4961271;29;20031;-84
2023/09/06 03:14:55;;;;;;;10.05;5.35;;;;;;;;;;4942418;29;20038;-85
2023/09/06 03:17:22;;;;;;;9.25;4.43;;;;;;;;;;4941723;29;20036;-85
2023/09/06 03:19:53;;;;;;;8.38;5.28;;;;;;;;;;4940893;29;20062;-84
2023/09/06 03:22:20;;;;;;;8.15;4.28;;;;;;;;;;4941486;29;20055;-85
2023/09/06 03:24:55;;;;;;;13.77;5.33;;;;;;;;;;4956805;29;20288;-85
2023/09/06 03:27:22;;;;;;;10.75;7.35;;;;;;;;;;4928341;29;20369;-86
2023/09/06 03:29:51;;;;;;;11.07;5.72;;;;;;;;;;4960384;29;20039;-85
2023/09/06 03:32:22;;;;;;;9.45;5.00;;;;;;;;;;4961981;29;20038;-85
2023/09/06 03:34:49;;;;;;;9.63;4.28;;;;;;;;;;4993447;28;20031;-85
2023/09/06 03:37:18;;;;;;;11.05;4.97;;;;;;;;;;4959419;29;20039;-86
2023/09/06 03:39:44;;;;;;;10.15;4.50;;;;;;;;;;4956867;29;20046;-84
2023/09/06 03:42:10;;;;;;;12.13;5.45;;;;;;;;;;4960027;29;20067;-85
2023/09/06 03:44:38;;;;;;;7.97;4.63;;;;;;;;;;4956327;29;20050;-83
2023/09/06 03:47:13;;;;;;;9.63;4.68;;;;;;;;;;4954181;29;20111;-84
2023/09/06 03:49:40;;;;;;;10.25;4.82;;;;;;;;;;4954638;29;20040;-84
2023/09/06 03:52:06;;;;;;;11.10;4.53;;;;;;;;;;4939112;29;20058;-84
2023/09/06 03:54:34;;;;;;;10.23;5.15;;;;;;;;;;4953433;29;20074;-85
2023/09/06 03:57:03;;;;;;;10.63;5.88;;;;;;;;;;4952645;29;20035;-84
2023/09/06 03:59:31;;;;;;;11.57;6.65;;;;;;;;;;4937116;29;20054;-85
2023/09/06 04:01:57;;;;;;;8.30;5.17;;;;;;;;;;4940652;29;20104;-85
2023/09/06 04:04:28;;;;;;;9.25;4.70;;;;;;;;;;4951700;29;20350;-85
2023/09/06 04:06:54;;;;;;;11.63;5.32;;;;;;;;;;4951354;29;20015;-85
2023/09/06 04:09:27;;;;;;;10.45;5.07;;;;;;;;;;4937009;29;20559;-84
2023/09/06 04:11:58;;;;;;;8.90;5.05;;;;;;;;;;4938673;29;20039;-85
2023/09/06 04:14:23;;;;;;;9.32;5.40;;;;;;;;;;4937738;29;20035;-85
2023/09/06 04:16:53;;;;;;;;;;;;;;;;;;4938231;29;20065;-85
2023/09/06 04:19:19;;;;;;;8.65;4.85;;;;;;;;;;4959045;29;19910;-84
2023/09/06 04:21:47;;;;;;;;;;;;;;;;;;4936173;29;20034;-84
2023/09/06 04:24:14;;;;;;;10.63;4.43;;;;;;;;;;4949975;29;19950;-84
2023/09/06 04:26:40;;;;;;;8.82;4.63;;;;;;;;;;4949770;29;20067;-85
2023/09/06 04:29:06;;;;;;;9.10;4.78;;;;;;;;;;4950405;29;20399;-84
2023/09/06 04:31:32;;;;;;;9.70;6.03;;;;;;;;;;4949440;29;20035;-84
2023/09/06 04:33:58;;;;;;;10.30;4.63;;;;;;;;;;4950340;29;20550;-84
2023/09/06 04:36:25;;;;;;;10.82;5.22;;;;;;;;;;4946149;29;20051;-84
2023/09/06 04:38:58;;;;;;;9.50;5.13;;;;;;;;;;4947006;29;20034;-84
2023/09/06 04:41:25;;;;;;;10.43;5.35;;;;;;;;;;4931617;29;20031;-84
2023/09/06 04:43:55;;;;;;;9.05;4.68;;;;;;;;;;4932198;29;20095;-84
2023/09/06 04:46:21;;;;;;;8.57;4.93;;;;;;;;;;4947453;29;20039;-84
2023/09/06 04:48:49;;;;;;;9.98;5.55;;;;;;;;;;4931601;29;20039;-85
2023/09/06 04:51:15;;;;;;;10.77;4.88;;;;;;;;;;4932304;29;20034;-85
2023/09/06 04:53:41;;;;;;;9.65;5.03;;;;;;;;;;4946513;29;20048;-84
2023/09/06 04:56:08;;;;;;;8.70;4.57;;;;;;;;;;4945902;23;20096;-78
2023/09/06 04:58:40;;;;;;;8.10;4.68;;;;;;;;;;4924813;29;20063;-78
2023/09/06 05:01:07;;;;;;;11.23;5.50;;;;;;;;;;4923719;29;20038;-76
2023/09/06 05:03:35;;;;;;;9.43;5.57;;;;;;;;;;4925359;29;20369;-77
2023/09/06 05:06:02;;;;;;;14.50;7.97;;;;;;;;;;4922707;29;20040;-77
2023/09/06 05:08:28;;;;;;;9.85;6.00;;;;;;;;;;4927390;29;20050;-77
2023/09/06 05:10:54;;;;;;;10.82;5.88;;;;;;;;;;4942229;29;20043;-78
2023/09/06 05:13:22;;;;;;;8.27;5.05;;;;;;;;;;4941629;29;20369;-78
2023/09/06 05:15:51;;;;;;;9.70;5.43;;;;;;;;;;4942913;29;20044;-77
2023/09/06 05:18:18;;;;;;;10.05;5.40;;;;;;;;;;4923649;29;20039;-76
2023/09/06 05:20:44;;;;;;;8.88;5.30;;;;;;;;;;4937023;29;20074;-76
2023/09/06 05:23:17;;;;;;;9.10;5.28;;;;;;;;;;4935147;29;20098;-77
2023/09/06 05:25:46;;;;;;;8.27;4.90;;;;;;;;;;4923809;29;20133;-76
2023/09/06 05:28:18;;;;;;;11.07;5.50;;;;;;;;;;4925746;29;20040;-77
2023/09/06 05:30:52;;;;;;;7.97;4.93;;;;;;;;;;4930580;29;20027;-76
2023/09/06 05:33:19;;;;;;;9.25;5.32;;;;;;;;;;4935464;29;20035;-77
2023/09/06 05:35:46;;;;;;;8.32;4.35;;;;;;;;;;4932889;29;20035;-77
2023/09/06 05:38:14;;;;;;;11.00;5.63;;;;;;;;;;4903466;29;20043;-77
2023/09/06 05:40:43;;;;;;;10.88;6.80;;;;;;;;;;4927809;29;20190;-78
2023/09/06 05:43:13;;;;;;;10.65;5.40;;;;;;;;;;4937912;29;20039;-78
2023/09/06 05:45:40;;;;;;;11.18;5.35;;;;;;;;;;4925080;29;20039;-77
2023/09/06 05:48:06;;;;;;;6.97;4.15;;;;;;;;;;4922328;29;20475;-77
2023/09/06 05:50:32;;;;;;;15.63;6.68;;;;;;;;;;4937008;29;20034;-77
2023/09/06 05:52:58;;;;;;;6.65;4.30;;;;;;;;;;4922471;29;20039;-77
2023/09/06 05:55:25;;;;;;;10.43;5.38;;;;;;;;;;4921876;29;20050;-77
2023/09/06 05:57:53;;;;;;;10.55;4.72;;;;;;;;;;4908773;29;20040;-78
2023/09/06 06:00:21;;;;;;;12.77;4.72;;;;;;;;;;4906219;29;20123;-78
2023/09/06 06:02:51;;;;;;;9.60;4.45;;;;;;;;;;4919189;29;20059;-78
2023/09/06 06:05:18;;;;;;;10.85;4.30;;;;;;;;;;4918570;29;20423;-78
2023/09/06 06:07:45;;;;;;;8.35;4.20;;;;;;;;;;4917812;29;20040;-78
2023/09/06 06:10:12;;;;;;;9.25;4.40;;;;;;;;;;4901275;29;20039;-78
2023/09/06 06:12:41;;;;;;;8.73;4.22;;;;;;;;;;4925853;29;20062;-78
2023/09/06 06:15:14;;;;;;;7.63;4.47;;;;;;;;;;4905788;29;20047;-78
2023/09/06 06:17:40;;;;;;;9.55;4.60;;;;;;;;;;4923012;29;20040;-78
2023/09/06 06:20:07;;;;;;;10.85;3.95;;;;;;;;;;4907002;29;20027;-78
2023/09/06 06:22:38;;;;;;;8.52;4.43;;;;;;;;;;4937551;29;20028;-77
2023/09/06 06:25:05;;;;;;;11.02;4.68;;;;;;;;;;4919677;29;20036;-78
2023/09/06 06:27:31;;;;;;;7.63;4.32;;;;;;;;;;4921266;29;20484;-78
2023/09/06 06:29:57;;;;;;;9.98;4.10;;;;;;;;;;4906506;29;20037;-77
2023/09/06 06:32:22;;;;;;;11.82;4.40;;;;;;;;;;4935008;29;20038;-77
2023/09/06 06:34:50;;;;;;;9.73;4.22;;;;;;;;;;4924287;29;20071;-77
2023/09/06 06:37:16;;;;;;;11.10;4.50;;;;;;;;;;4928447;29;20043;-78
2023/09/06 06:39:42;;;;;;;12.40;4.05;;;;;;;;;;4926731;29;20032;-78
2023/09/06 06:42:09;;;;;;;8.25;5.07;;;;;;;;;;4928883;29;20036;-77
2023/09/06 06:44:44;;;;;;;10.38;4.60;;;;;;;;;;4925466;29;20032;-78
2023/09/06 06:47:11;;;;;;;10.63;4.07;;;;;;;;;;4921812;29;20036;-76
2023/09/06 06:49:36;;;;;;;7.90;4.53;;;;;;;;;;4939384;29;20031;-77
2023/09/06 06:52:02;;;;;;;7.90;4.15;;;;;;;;;;4925871;29;20484;-77
2023/09/06 06:54:27;;;;;;;7.45;3.80;;;;;;;;;;4940589;29;20035;-77
2023/09/06 06:56:54;;;;;;;9.05;3.78;;;;;;;;;;4924574;29;20039;-77
2023/09/06 06:59:19;;;;;;;8.10;3.88;;;;;;;;;;4909799;29;20122;-77
2023/09/06 07:01:47;;;;;;;10.77;4.28;;;;;;;;;;4928139;29;20411;-77
2023/09/06 07:04:13;;;;;;;11.38;4.20;;;;;;;;;;4944011;29;20035;-77
2023/09/06 07:06:39;;;;;;;8.00;4.10;;;;;;;;;;4926730;29;20035;-77
2023/09/06 07:09:05;;;;;;;8.90;4.00;;;;;;;;;;4930278;29;20028;-77
2023/09/06 07:11:31;;;;;;;8.93;4.35;;;;;;;;;;4924454;29;20028;-77
2023/09/06 07:14:01;;;;;;;8.70;4.00;;;;;;;;;;4916731;29;20103;-76
2023/09/06 07:16:26;;;;;;;8.10;4.20;;;;;;;;;;4923880;29;20036;-77
2023/09/06 07:18:52;;;;;;;10.00;3.97;;;;;;;;;;4943499;29;20047;-77
2023/09/06 07:21:21;;;;;;;7.20;3.67;;;;;;;;;;4929994;29;20140;-77
2023/09/06 07:23:46;;;;;;;7.70;3.28;;;;;;;;;;4909382;29;20036;-77
2023/09/06 07:26:12;;;;;;;5.90;3.08;;;;;;;;;;4924731;29;20039;-78
2023/09/06 07:28:40;;;;;;;7.00;3.40;;;;;;;;;;4932248;29;20032;-77
2023/09/06 07:31:06;;;;;;;6.55;4.22;;;;;;;;;;4914268;29;20064;-78
2023/09/06 07:33:35;;;;;;;5.55;3.45;;;;;;;;;;4930338;29;20040;-77
2023/09/06 07:36:01;;;;;;;6.03;3.00;;;;;;;;;;4898761;29;20116;-78
2023/09/06 07:38:27;;;;;;;10.88;3.40;;;;;;;;;;4908315;29;20040;-78
2023/09/06 07:41:00;;;;;;;8.93;3.20;;;;;;;;;;4944045;29;20035;-78
2023/09/06 07:43:28;;;;;;;10.60;3.65;;;;;;;;;;4911965;29;20047;-78
2023/09/06 07:45:57;;;;;;;5.93;2.92;;;;;;;;;;4926584;29;20032;-78
2023/09/06 07:48:28;;;;;;;9.63;3.10;;;;;;;;;;4908818;29;20070;-78
2023/09/06 07:50:55;;;;;;;8.98;3.53;;;;;;;;;;4942284;29;20123;-78
2023/09/06 07:53:21;;;;;;;6.15;2.97;;;;;;;;;;4924490;29;20448;-78
2023/09/06 07:55:47;;;;;;;7.60;2.90;;;;;;;;;;4910330;29;20119;-79
2023/09/06 07:58:14;;;;;;;7.15;3.10;;;;;;;;;;4924997;29;20504;-77
2023/09/06 08:00:40;;;;;;;7.13;4.15;;;;;;;;;;4897347;29;20047;-77
2023/09/06 08:03:09;;;;;;;10.38;3.65;;;;;;;;;;4933571;29;20111;-77
2023/09/06 08:05:37;;;;;;;5.88;3.47;;;;;;;;;;4918254;29;20064;-78
2023/09/06 08:08:03;;;;;;;;;;;;;;;;;;4933736;29;20032;-77
2023/09/06 08:10:29;;;;;;;7.72;3.10;;;;;;;;;;4933145;29;19935;-77
2023/09/06 08:12:55;;;;;;;6.25;3.13;;;;;;;;;;4950840;29;20035;-79
2023/09/06 08:15:22;;;;;;;6.55;3.25;;;;;;;;;;4954783;29;20035;-77
2023/09/06 08:17:48;;;;;;;7.27;3.60;;;;;;;;;;4938449;29;20063;-78
2023/09/06 08:20:15;;;;;;;7.88;3.45;;;;;;;;;;4953567;29;20266;-78
2023/09/06 08:22:41;;;;;;;7.35;3.70;;;;;;;;;;4933447;29;20035;-78
2023/09/06 08:25:07;;;;;;;5.53;3.13;;;;;;;;;;4929287;29;20058;-77
2023/09/06 08:27:33;;;;;;;5.50;3.28;;;;;;;;;;4908933;29;20044;-77
2023/09/06 08:29:59;;;;;;;7.75;3.13;;;;;;;;;;4940317;29;20391;-77
2023/09/06 08:32:24;;;;;;;6.53;3.08;;;;;;;;;;4910097;29;20055;-77
2023/09/06 08:34:50;;;;;;;6.07;3.65;;;;;;;;;;4909618;29;20381;-77
2023/09/06 08:37:16;;;;;;;6.05;3.22;;;;;;;;;;4909721;29;20036;-77
2023/09/06 08:39:42;;;;;;;6.28;3.03;;;;;;;;;;4906936;29;20400;-77
2023/09/06 08:42:09;;;;;;;4.68;3.17;;;;;;;;;;4922408;29;20044;-77
2023/09/06 08:44:35;;;;;;;7.53;4.03;;;;;;;;;;4922554;29;20639;-78
2023/09/06 08:47:03;;;;;;;12.15;5.05;;;;;;;;;;4891746;29;20028;-78
2023/09/06 08:49:29;;;;;;;7.25;4.70;;;;;;;;;;4907814;29;20056;-77
2023/09/06 08:51:55;;;;;;;8.25;3.70;;;;;;;;;;4895971;29;20040;-78
2023/09/06 08:54:23;;;;;;;6.38;3.40;;;;;;;;;;4928723;29;20024;-77
2023/09/06 08:56:50;;;;;;;5.03;2.83;;;;;;;;;;4935876;29;20036;-79
2023/09/06 08:59:15;;;;;;;7.53;4.65;;;;;;;;;;4930774;29;20032;-79
2023/09/06 09:01:42;;;;;;;9.80;5.45;;;;;;;;;;4924885;29;20043;-78
2023/09/06 09:04:09;;;;;;;6.00;3.13;;;;;;;;;;4923672;29;20040;-77
2023/09/06 09:06:35;;;;;;;5.65;2.63;;;;;;;;;;4936434;29;20035;-77
2023/09/06 09:09:19;;;;;;;8.35;3.40;;;;;;;;;;4889551;29;20036;-78
2023/09/06 09:11:49;;;;;;;5.60;3.38;;;;;;;;;;4920101;29;20028;-78
2023/09/06 09:14:21;;;;;;;6.30;2.83;;;;;;;;;;4919547;29;20062;-77
2023/09/06 09:16:57;;;;;;;8.23;3.22;;;;;;;;;;4919250;29;20092;-77
2023/09/06 09:19:24;;;;;;;10.85;3.42;;;;;;;;;;4936526;29;20088;-78
2023/09/06 09:21:50;;;;;;;6.35;2.90;;;;;;;;;;4919945;29;20445;-80
2023/09/06 09:24:26;;;;;;;6.80;2.53;;;;;;;;;;4924087;29;20107;-77
2023/09/06 09:26:52;;;;;;;6.13;2.88;;;;;;;;;;4923137;29;20032;-78
2023/09/06 09:29:17;;;;;;;9.88;2.97;;;;;;;;;;4925096;29;20028;-78
2023/09/06 09:31:44;;;;;;;6.25;3.08;;;;;;;;;;4924651;29;20550;-78
2023/09/06 09:34:20;;;;;;;6.75;3.30;;;;;;;;;;4959421;29;20123;-78
2023/09/06 09:36:50;;;;;;;11.43;3.17;;;;;;;;;;4941617;29;20459;-78
2023/09/06 09:39:18;;;;;;;7.13;2.70;;;;;;;;;;4924086;29;20038;-77
2023/09/06 09:41:44;;;;;;;5.07;2.80;;;;;;;;;;4920329;29;20032;-77
2023/09/06 09:44:14;;;;;;;5.18;3.10;;;;;;;;;;4933845;29;20032;-78
2023/09/06 09:46:43;;;;;;;6.80;2.53;;;;;;;;;;4939219;29;20123;-78
2023/09/06 09:49:13;;;;;;;5.30;2.97;;;;;;;;;;4928644;29;20027;-77
2023/09/06 09:51:42;;;;;;;4.05;2.80;;;;;;;;;;4928943;29;20127;-79
2023/09/06 09:54:09;;;;;;;7.55;3.13;;;;;;;;;;4929966;29;20032;-79
2023/09/06 09:56:37;;;;;;;6.63;2.85;;;;;;;;;;4961484;29;20035;-78
2023/09/06 09:59:06;;;;;;;111.40;80.90;;;;;;;;;;4903513;29;20099;-81
2023/09/06 10:01:31;;;;;;;;;;;;;;;;;;4920204;29;20039;-77
2023/09/06 10:03:58;;;;;;;16.15;11.98;;;;;;;;;;4911645;29;19911;-76
2023/09/06 10:06:27;;;;;;;16.88;10.15;;;;;;;;;;4939060;29;20089;-76
2023/09/06 10:08:56;;;;;;;13.60;5.78;;;;;;;;;;4944795;29;20035;-76
2023/09/06 10:11:21;;;;;;;15.25;7.45;;;;;;;;;;4942815;29;20050;-76
2023/09/06 10:13:47;;;;;;;19.25;10.15;;;;;;;;;;4932644;29;20024;-75
2023/09/06 10:16:13;;;;;;;15.40;9.18;;;;;;;;;;4957438;29;20039;-76
2023/09/06 10:18:39;;;;;;;11.70;7.75;;;;;;;;;;4932997;29;20072;-75
2023/09/06 10:21:06;;;;;;;9.88;6.13;;;;;;;;;;4932546;29;20036;-75
2023/09/06 10:23:40;;;;;;;8.35;5.65;;;;;;;;;;4925775;29;20036;-75
2023/09/06 10:26:06;;;;;;;5.85;3.35;;;;;;;;;;4937349;29;20036;-75
2023/09/06 10:28:33;;;;;;;16.25;4.25;;;;;;;;;;4923607;29;20036;-76
2023/09/06 10:31:07;;;;;;;6.45;3.75;;;;;;;;;;4909758;29;20099;-77
2023/09/06 10:33:36;;;;;;;6.47;3.28;;;;;;;;;;4941973;29;20042;-75
2023/09/06 10:36:08;;;;;;;6.70;3.03;;;;;;;;;;4945949;29;20108;-76
2023/09/06 10:39:04;;;;;;;9.60;3.40;;;;;;;;;;4943193;29;20047;-75
2023/09/06 10:41:29;;;;;;;7.38;3.40;;;;;;;;;;4961658;29;20039;-75
2023/09/06 10:43:58;;;;;;;5.45;2.80;;;;;;;;;;4955187;29;20040;-76
2023/09/06 10:46:27;;;;;;;8.57;2.92;;;;;;;;;;4946285;29;20036;-75
2023/09/06 10:49:14;;;;;;;7.00;2.90;;;;;;;;;;4946713;29;20040;-74
2023/09/06 10:51:59;;;;;;;5.82;2.75;;;;;;;;;;4949309;29;20032;-77
2023/09/06 10:54:38;;;;;;;8.07;3.08;;;;;;;;;;4929798;29;20515;-76
2023/09/06 10:57:05;;;;;;;7.47;2.90;;;;;;;;;;4973011;28;20047;-78
2023/09/06 10:59:31;;;;;;;5.10;2.83;;;;;;;;;;4956047;29;20024;-77
2023/09/06 11:02:18;;;;;;;5.90;2.60;;;;;;;;;;4959114;28;20028;-78
2023/09/06 11:04:43;;;;;;;5.60;2.65;;;;;;;;;;4954491;29;20036;-78
2023/09/06 11:07:12;;;;;;;5.97;2.92;;;;;;;;;;4959276;28;20366;-78
2023/09/06 11:09:43;;;;;;;5.20;2.90;;;;;;;;;;4957585;28;20024;-78
2023/09/06 11:12:09;;;;;;;6.20;2.83;;;;;;;;;;4956137;28;20032;-78
2023/09/06 11:14:36;;;;;;;5.47;3.08;;;;;;;;;;4940986;29;20081;-78
2023/09/06 11:17:01;;;;;;;7.03;3.00;;;;;;;;;;4941220;29;20438;-78
2023/09/06 11:19:30;;;;;;;6.88;2.72;;;;;;;;;;4958763;29;20031;-77
2023/09/06 11:22:08;;;;;;;6.78;2.80;;;;;;;;;;4958968;28;20035;-78
2023/09/06 11:24:35;;;;;;;5.18;2.50;;;;;;;;;;4957927;29;20062;-76
2023/09/06 11:27:20;;;;;;;8.07;2.80;;;;;;;;;;4965764;28;20023;-79
2023/09/06 11:29:56;;;;;;;4.60;2.65;;;;;;;;;;4955860;28;20023;-77
2023/09/06 11:32:22;;;;;;;5.10;3.17;;;;;;;;;;4961589;29;20031;-77
2023/09/06 11:34:47;;;;;;;6.32;2.58;;;;;;;;;;4961029;28;20031;-78
2023/09/06 11:37:15;;;;;;;4.00;2.33;;;;;;;;;;4958303;28;20027;-78
2023/09/06 11:39:45;;;;;;;8.25;2.78;;;;;;;;;;4957474;28;20031;-78
2023/09/06 11:42:13;;;;;;;5.82;2.80;;;;;;;;;;4940732;29;20101;-77
2023/09/06 11:44:43;;;;;;;8.65;2.78;;;;;;;;;;4949473;28;20038;-78
2023/09/06 11:47:09;;;;;;;6.22;2.80;;;;;;;;;;4946927;29;20027;-78
2023/09/06 11:49:35;;;;;;;5.32;2.60;;;;;;;;;;4954747;29;20058;-78
2023/09/06 11:52:05;;;;;;;4.68;2.67;;;;;;;;;;4951942;28;20027;-80
2023/09/06 11:54:32;;;;;;;4.27;2.23;;;;;;;;;;4956604;29;20042;-77
2023/09/06 11:56:58;;;;;;;7.32;2.78;;;;;;;;;;4946321;28;20107;-78
2023/09/06 11:59:24;;;;;;;5.72;2.63;;;;;;;;;;4937517;29;20055;-78
2023/09/06 12:01:58;;;;;;;4.80;2.67;;;;;;;;;;4928169;29;20074;-77
2023/09/06 12:04:26;;;;;;;6.10;2.55;;;;;;;;;;4934829;29;20035;-76
2023/09/06 12:06:54;;;;;;;6.10;2.80;;;;;;;;;;4949237;28;20070;-77
2023/09/06 12:09:20;;;;;;;4.55;3.10;;;;;;;;;;4951031;29;20020;-78
2023/09/06 12:11:45;;;;;;;4.43;2.70;;;;;;;;;;4940066;29;20051;-78
2023/09/06 12:14:15;;;;;;;6.45;2.90;;;;;;;;;;4956754;29;20109;-78
2023/09/06 12:16:41;;;;;;;9.52;2.67;;;;;;;;;;4958505;28;20051;-77
2023/09/06 12:19:11;;;;;;;6.72;2.38;;;;;;;;;;4957394;28;20053;-76
2023/09/06 12:21:37;;;;;;;5.38;2.42;;;;;;;;;;4954468;28;20083;-78
2023/09/06 12:24:02;;;;;;;43.58;20.35;;;;;;;;;;4954308;29;20036;-78
2023/09/06 12:26:28;;;;;;;11.55;6.85;;;;;;;;;;4953087;29;20039;-78
2023/09/06 12:28:57;;;;;;;18.02;13.55;;;;;;;;;;4955641;28;20023;-78
2023/09/06 12:31:22;;;;;;;16.17;11.35;;;;;;;;;;4954521;29;20103;-78
2023/09/06 12:33:49;;;;;;;12.40;6.43;;;;;;;;;;4955058;28;20117;-77
2023/09/06 12:36:18;;;;;;;12.98;8.43;;;;;;;;;;4955626;28;20034;-77
2023/09/06 12:38:43;;;;;;;11.93;6.68;;;;;;;;;;4955079;28;20034;-78
2023/09/06 12:41:09;;;;;;;10.57;6.22;;;;;;;;;;4953866;29;20031;-78
2023/09/06 12:43:36;;;;;;;6.63;4.63;;;;;;;;;;4938163;29;20434;-77
2023/09/06 12:46:02;;;;;;;8.07;4.95;;;;;;;;;;4938969;29;20039;-77
2023/09/06 12:48:28;;;;;;;6.53;4.03;;;;;;;;;;4956247;28;20038;-77
2023/09/06 12:50:53;;;;;;;5.95;3.42;;;;;;;;;;4954838;29;20039;-77
2023/09/06 12:53:22;;;;;;;11.25;3.88;;;;;;;;;;4940989;29;20024;-78
2023/09/06 12:55:48;;;;;;;3.75;2.30;;;;;;;;;;4951330;28;20055;-81
2023/09/06 12:58:16;;;;;;;5.47;2.30;;;;;;;;;;4958985;28;20035;-79
2023/09/06 13:00:41;;;;;;;4.07;2.30;;;;;;;;;;4930586;29;20035;-81
2023/09/06 13:03:07;;;;;;;8.85;2.50;;;;;;;;;;4946973;29;20042;-80
2023/09/06 13:05:36;;;;;;;4.00;2.35;;;;;;;;;;4948985;28;20035;-81
2023/09/06 13:08:01;;;;;;;4.85;2.30;;;;;;;;;;4965681;29;20110;-80
2023/09/06 13:10:30;;;;;;;7.50;2.60;;;;;;;;;;4966021;28;20043;-80
2023/09/06 13:12:56;;;;;;;5.10;2.60;;;;;;;;;;4927649;29;20046;-81
2023/09/06 13:15:22;;;;;;;5.25;2.88;;;;;;;;;;4964442;28;20467;-82
2023/09/06 13:17:47;;;;;;;4.18;2.50;;;;;;;;;;4964504;28;20035;-81
2023/09/06 13:20:13;;;;;;;4.03;2.40;;;;;;;;;;4961416;28;20023;-81
2023/09/06 13:22:39;;;;;;;4.93;2.30;;;;;;;;;;4959010;28;20062;-81
2023/09/06 13:25:08;;;;;;;4.18;2.28;;;;;;;;;;4939975;29;20035;-81
2023/09/06 13:27:34;;;;;;;4.28;2.63;;;;;;;;;;4941510;29;20517;-82
2023/09/06 13:29:59;;;;;;;10.00;6.47;;;;;;;;;;4940360;29;20099;-82
2023/09/06 13:32:26;;;;;;;4.17;2.20;;;;;;;;;;4921946;29;20091;-82
2023/09/06 13:34:52;;;;;;;5.90;2.33;;;;;;;;;;4955490;29;20320;-82
2023/09/06 13:37:21;;;;;;;13.27;10.38;;;;;;;;;;4941831;29;20033;-84
2023/09/06 13:39:47;;;;;;;7.32;2.67;;;;;;;;;;4956558;28;20043;-81
2023/09/06 13:42:14;;;;;;;4.70;2.40;;;;;;;;;;4956186;29;20046;-82
2023/09/06 13:44:40;;;;;;;3.92;2.40;;;;;;;;;;4958215;28;20380;-81
2023/09/06 13:47:05;;;;;;;7.05;2.45;;;;;;;;;;4956023;29;20059;-82
2023/09/06 13:49:31;;;;;;;4.20;2.53;;;;;;;;;;4957255;28;20023;-81
2023/09/06 13:51:56;;;;;;;5.20;2.70;;;;;;;;;;4955510;29;20023;-82
2023/09/06 13:54:22;;;;;;;4.80;2.42;;;;;;;;;;4947554;29;20027;-82
2023/09/06 13:56:51;;;;;;;4.20;2.73;;;;;;;;;;4955949;28;20102;-82
2023/09/06 13:59:17;;;;;;;6.47;3.00;;;;;;;;;;4955100;29;20106;-82
2023/09/06 14:01:42;;;;;;;12.30;8.82;;;;;;;;;;4939358;29;20064;-81
2023/09/06 14:04:10;;;;;;;10.25;6.63;;;;;;;;;;4955661;29;20068;-82
2023/09/06 14:06:38;;;;;;;7.50;4.38;;;;;;;;;;4948781;29;20356;-82
2023/09/06 14:09:08;;;;;;;5.75;3.22;;;;;;;;;;4954619;28;20031;-80
2023/09/06 14:11:40;;;;;;;6.18;3.22;;;;;;;;;;4958081;28;20027;-82
2023/09/06 14:14:06;;;;;;;4.80;3.25;;;;;;;;;;4955510;29;20035;-82
2023/09/06 14:16:32;;;;;;;4.60;2.85;;;;;;;;;;4955202;29;20030;-82
2023/09/06 14:18:58;;;;;;;7.25;3.17;;;;;;;;;;4956838;28;20027;-81
2023/09/06 14:21:24;;;;;;;4.93;2.90;;;;;;;;;;4956644;29;20098;-83
2023/09/06 14:23:49;;;;;;;5.47;2.40;;;;;;;;;;4956187;28;20027;-81
2023/09/06 14:26:15;;;;;;;4.28;2.38;;;;;;;;;;4956330;28;20085;-81
2023/09/06 14:28:43;;;;;;;4.65;2.70;;;;;;;;;;4957230;28;20091;-83
2023/09/06 14:31:11;;;;;;;5.03;2.90;;;;;;;;;;4956770;28;20583;-80
2023/09/06 14:33:37;;;;;;;4.13;2.58;;;;;;;;;;4955848;29;20531;-83
2023/09/06 14:36:03;;;;;;;4.18;2.70;;;;;;;;;;4957986;29;20071;-83
2023/09/06 14:38:28;;;;;;;6.35;2.40;;;;;;;;;;4960696;29;20368;-81
2023/09/06 14:40:55;;;;;;;5.82;2.47;;;;;;;;;;4938450;29;20066;-82
2023/09/06 14:43:21;;;;;;;6.60;2.30;;;;;;;;;;4972560;28;20078;-82